createdAt,value
2022-11-10T00:01:12.853Z,14.91
2022-11-10T00:06:37.549Z,13.37
2022-11-10T00:11:59.259Z,12.47
2022-11-10T00:17:21.375Z,11.81
2022-11-10T00:22:42.914Z,11.19
2022-11-10T00:28:04.722Z,10.72
2022-11-10T00:33:26.189Z,10.40
2022-11-10T00:38:50.665Z,11.47
2022-11-10T00:44:12.084Z,14.66
2022-11-10T00:49:33.769Z,15.33
2022-11-10T00:54:55.287Z,13.67
2022-11-10T01:00:17.151Z,12.64
2022-11-10T01:05:38.651Z,11.93
2022-11-10T01:11:13.429Z,11.40
2022-11-10T01:16:34.865Z,10.94
2022-11-10T01:21:56.046Z,10.63
2022-11-10T01:27:18.281Z,11.78
2022-11-10T01:32:39.614Z,15.00
2022-11-10T01:38:01.127Z,15.64
2022-11-10T01:43:23.878Z,13.95
2022-11-10T01:48:57.771Z,13.00
2022-11-10T01:54:23.973Z,12.36
2022-11-10T01:59:48.910Z,11.91
2022-11-10T02:05:10.550Z,11.52
2022-11-10T02:10:40.286Z,12.56
2022-11-10T02:16:02.253Z,15.61
2022-11-10T02:21:24.300Z,15.99
2022-11-10T02:26:56.012Z,14.21
2022-11-10T02:32:17.420Z,13.12
2022-11-10T02:37:39.312Z,12.42
2022-11-10T02:43:01.086Z,11.90
2022-11-10T02:48:22.695Z,11.49
2022-11-10T02:53:44.293Z,12.51
2022-11-10T02:59:06.218Z,15.49
2022-11-10T03:04:27.513Z,15.79
2022-11-10T03:09:48.886Z,14.08
2022-11-10T03:15:14.916Z,13.08
2022-11-10T03:20:36.712Z,12.38
2022-11-10T03:25:58.358Z,11.82
2022-11-10T03:31:20.225Z,11.35
2022-11-10T03:36:41.683Z,12.31
2022-11-10T03:42:03.595Z,15.25
2022-11-10T03:47:25.402Z,15.02
2022-11-10T03:52:47.366Z,13.48
2022-11-10T03:58:09.092Z,12.65
2022-11-10T04:03:30.149Z,12.14
2022-11-10T04:09:00.485Z,11.71
2022-11-10T04:14:41.062Z,11.37
2022-11-10T04:20:03.980Z,12.64
2022-11-10T04:25:25.612Z,15.48
2022-11-10T04:30:46.792Z,14.70
2022-11-10T04:36:10.256Z,13.31
2022-11-10T04:41:32.549Z,12.56
2022-11-10T04:46:54.377Z,12.03
2022-11-10T04:52:16.271Z,11.60
2022-11-10T04:57:38.104Z,12.56
2022-11-10T05:03:00.989Z,15.42
2022-11-10T05:08:22.535Z,14.95
2022-11-10T05:13:45.119Z,13.48
2022-11-10T05:19:06.927Z,12.68
2022-11-10T05:24:28.544Z,12.15
2022-11-10T05:29:49.947Z,11.74
2022-11-10T05:35:11.657Z,11.43
2022-11-10T05:40:33.977Z,12.51
2022-11-10T05:45:55.490Z,15.56
2022-11-10T05:51:17.100Z,16.03
2022-11-10T05:56:38.723Z,14.42
2022-11-10T06:02:00.199Z,13.52
2022-11-10T06:07:21.974Z,12.88
2022-11-10T06:12:43.516Z,12.41
2022-11-10T06:18:05.168Z,12.05
2022-11-10T06:23:27.141Z,12.96
2022-11-10T06:28:48.637Z,15.88
2022-11-10T06:34:10.281Z,16.36
2022-11-10T06:39:31.811Z,14.78
2022-11-10T06:44:53.486Z,13.87
2022-11-10T06:50:15.693Z,13.25
2022-11-10T06:55:37.230Z,12.78
2022-11-10T07:01:02.216Z,12.45
2022-11-10T07:06:23.786Z,13.42
2022-11-10T07:11:45.066Z,16.31
2022-11-10T07:17:07.888Z,15.71
2022-11-10T07:22:29.532Z,14.34
2022-11-10T07:27:59.478Z,13.60
2022-11-10T07:33:21.752Z,13.08
2022-11-10T07:38:43.252Z,12.70
2022-11-10T07:44:04.964Z,13.69
2022-11-10T07:49:26.495Z,16.68
2022-11-10T07:54:47.859Z,16.40
2022-11-10T08:00:12.696Z,14.87
2022-11-10T08:05:35.048Z,14.00
2022-11-10T08:10:57.743Z,13.44
2022-11-10T08:16:19.471Z,13.02
2022-11-10T08:21:40.742Z,13.99
2022-11-10T08:27:02.275Z,16.85
2022-11-10T08:32:23.438Z,16.59
2022-11-10T08:37:44.923Z,15.09
2022-11-10T08:43:07.745Z,14.19
2022-11-10T08:48:29.181Z,13.55
2022-11-10T08:53:50.860Z,14.60
2022-11-10T08:59:13.062Z,17.62
2022-11-10T09:04:34.762Z,16.55
2022-11-10T09:10:06.762Z,15.05
2022-11-10T09:15:30.063Z,14.19
2022-11-10T09:20:51.480Z,13.65
2022-11-10T09:26:12.890Z,14.65
2022-11-10T09:31:34.512Z,17.35
2022-11-10T09:36:56.136Z,17.24
2022-11-10T09:42:39.829Z,15.66
2022-11-10T09:48:15.730Z,14.69
2022-11-10T09:53:44.588Z,15.52
2022-11-10T09:59:34.107Z,18.10
2022-11-10T10:05:14.403Z,17.03
2022-11-10T10:10:50.228Z,15.70
2022-11-10T10:16:28.170Z,14.98
2022-11-10T10:22:25.931Z,15.98
2022-11-10T10:27:58.232Z,18.44
2022-11-10T10:33:22.282Z,16.86
2022-11-10T10:38:46.491Z,15.69
2022-11-10T10:44:17.600Z,15.00
2022-11-10T10:49:39.058Z,16.08
2022-11-10T10:55:02.332Z,18.60
2022-11-10T11:00:24.326Z,17.25
2022-11-10T11:06:01.279Z,15.99
2022-11-10T11:11:35.251Z,15.23
2022-11-10T11:17:12.912Z,14.76
2022-11-10T11:23:12.230Z,15.81
2022-11-10T11:29:01.632Z,18.45
2022-11-10T11:34:48.531Z,17.79
2022-11-10T11:40:48.727Z,16.46
2022-11-10T11:46:14.790Z,15.67
2022-11-10T11:51:54.483Z,16.28
2022-11-10T11:57:39.855Z,18.69
2022-11-10T12:03:36.606Z,17.79
2022-11-10T12:09:06.760Z,16.33
2022-11-10T12:14:49.122Z,15.50
2022-11-10T12:20:40.448Z,16.26
2022-11-10T12:26:29.883Z,18.70
2022-11-10T12:32:06.924Z,17.73
2022-11-10T12:37:37.916Z,16.49
2022-11-10T12:43:06.549Z,15.79
2022-11-10T12:48:39.561Z,15.28
2022-11-10T12:54:01.919Z,16.25
2022-11-10T12:59:33.235Z,18.84
2022-11-10T13:05:22.325Z,18.57
2022-11-10T13:10:54.084Z,17.11
2022-11-10T13:16:42.482Z,16.28
2022-11-10T13:22:08.514Z,15.64
2022-11-10T13:27:35.977Z,16.45
2022-11-10T13:33:23.837Z,19.05
2022-11-10T13:38:46.051Z,17.84
2022-11-10T13:44:24.041Z,16.54
2022-11-10T13:49:57.160Z,15.75
2022-11-10T13:55:45.051Z,15.22
2022-11-10T14:01:37.958Z,16.47
2022-11-10T14:06:59.850Z,19.17
2022-11-10T14:12:54.748Z,18.02
2022-11-10T14:18:25.469Z,16.75
2022-11-10T14:24:03.258Z,16.03
2022-11-10T14:29:33.441Z,15.41
2022-11-10T14:34:56.369Z,16.43
2022-11-10T15:09:32.365Z,21.26
2022-11-10T15:15:00.322Z,19.59
2022-11-10T15:20:41.250Z,17.86
2022-11-10T15:26:04.905Z,16.48
2022-11-10T15:31:30.708Z,15.52
2022-11-10T15:37:08.901Z,14.79
2022-11-10T15:42:30.665Z,16.50
2022-11-10T15:47:52.464Z,17.99
2022-11-10T15:53:22.336Z,16.32
2022-11-10T15:58:49.267Z,15.26
2022-11-10T16:04:11.841Z,16.00
2022-11-10T16:09:33.531Z,18.19
2022-11-10T16:14:55.397Z,16.80
2022-11-10T16:20:15.072Z,15.86
2022-11-10T16:25:38.521Z,15.31
2022-11-10T16:31:00.034Z,14.88
2022-11-10T16:36:28.252Z,16.00
2022-11-10T16:41:50.482Z,18.67
2022-11-10T16:47:19.539Z,17.59
2022-11-10T16:52:41.114Z,16.35
2022-11-10T16:58:03.007Z,15.59
2022-11-10T17:03:37.045Z,15.05
2022-11-10T17:09:07.121Z,14.64
2022-11-10T17:14:28.710Z,15.75
2022-11-10T17:19:52.004Z,18.50
2022-11-10T17:25:24.145Z,17.60
2022-11-10T17:30:46.467Z,16.31
2022-11-10T17:36:19.007Z,15.60
2022-11-10T17:41:40.390Z,15.07
2022-11-10T17:47:01.803Z,14.69
2022-11-10T17:52:23.804Z,15.66
2022-11-10T17:57:45.496Z,18.38
2022-11-10T18:03:09.924Z,17.45
2022-11-10T18:08:31.407Z,16.19
2022-11-10T18:13:52.661Z,15.44
2022-11-10T18:19:15.254Z,14.86
2022-11-10T18:24:37.531Z,14.43
2022-11-10T18:29:59.011Z,14.07
2022-11-10T18:35:20.876Z,15.10
2022-11-10T18:40:42.599Z,18.00
2022-11-10T18:46:12.755Z,17.55
2022-11-10T18:51:34.902Z,16.19
2022-11-10T18:56:58.569Z,15.43
2022-11-10T19:02:20.608Z,14.87
2022-11-10T19:07:42.618Z,14.40
2022-11-10T19:13:04.748Z,14.03
2022-11-10T19:18:29.421Z,15.11
2022-11-10T19:23:57.920Z,18.03
2022-11-10T19:29:19.595Z,17.57
2022-11-10T19:34:41.162Z,16.12
2022-11-10T19:40:02.832Z,15.30
2022-11-10T19:45:24.039Z,14.75
2022-11-10T19:50:53.496Z,14.36
2022-11-10T19:56:20.892Z,13.98
2022-11-10T20:01:42.938Z,14.98
2022-11-10T20:07:23.842Z,17.77
2022-11-10T20:12:45.599Z,16.96
2022-11-10T20:18:09.311Z,15.67
2022-11-10T20:23:31.002Z,14.91
2022-11-10T20:28:52.519Z,14.30
2022-11-10T20:34:14.028Z,13.83
2022-11-10T20:39:35.676Z,14.70
2022-11-10T20:45:06.681Z,17.46
2022-11-10T20:50:27.892Z,16.46
2022-11-10T20:55:53.862Z,15.21
2022-11-10T21:01:16.530Z,14.46
2022-11-10T21:06:39.379Z,13.89
2022-11-10T21:12:19.593Z,13.44
2022-11-10T21:17:44.074Z,14.58
2022-11-10T21:23:05.959Z,17.37
2022-11-10T21:28:27.943Z,16.53
2022-11-10T21:33:50.285Z,15.16
2022-11-10T21:39:12.086Z,14.36
2022-11-10T21:44:34.386Z,13.77
2022-11-10T21:49:56.176Z,13.30
2022-11-10T21:55:18.129Z,12.95
2022-11-10T22:00:39.875Z,13.98
2022-11-10T22:06:05.656Z,16.97
2022-11-10T22:11:45.803Z,16.77
2022-11-10T22:17:34.242Z,15.16
2022-11-10T22:22:55.689Z,14.22
2022-11-10T22:28:19.739Z,13.61
2022-11-10T22:33:43.114Z,13.08
2022-11-10T22:39:05.527Z,12.64
2022-11-10T22:44:29.032Z,13.65
2022-11-10T22:49:50.847Z,16.46
2022-11-10T22:55:12.407Z,15.70
2022-11-10T23:00:33.922Z,14.35
2022-11-10T23:05:56.649Z,13.56
2022-11-10T23:11:29.976Z,12.99
2022-11-10T23:16:51.441Z,12.55
2022-11-10T23:22:13.388Z,13.51
2022-11-10T23:27:35.461Z,16.19
2022-11-10T23:32:57.047Z,15.36
2022-11-10T23:38:18.405Z,14.06
2022-11-10T23:43:40.248Z,13.28
2022-11-10T23:49:01.820Z,12.73
2022-11-10T23:54:23.376Z,12.30
2022-11-10T23:59:44.854Z,13.13
